ADDS METAR Data INFO
IDs: Format: Raw Decoded Include TAF

Data at: 1230 UTC 20 Jul 2017

METAR for:PAVC (King Cove Arpt, AK, US)
Text:PAVC 201212Z AUTO 26015G31KT 4SM -RA BR OVC016 11/09 A2980 RMK AO2 PK WND 26031/1209 P0001
Temperature: 11.0°C ( 52°F)
Dewpoint: 9.0°C ( 48°F) [RH = 87%]
Pressure (altimeter):29.80 inches Hg (1009.2 mb)
Winds:from the W (260 degrees) at 17 MPH (15 knots; 7.7 m/s) gusting to 36 MPH (31 knots; 15.9 m/s)
Visibility: 4 sm ( 6 km)
Ceiling:1600 feet AGL
Clouds: overcast cloud deck at 1600 feet AGL
Weather:-RA BR (light rain, mist)
QC Flag:automated observation with no human augmentation
Text:PAVC 201203Z AUTO 25012G19KT 4SM -RA BR BKN014 OVC020 11/09 A2980 RMK AO2 P0001
Temperature: 11.0°C ( 52°F)
Dewpoint: 9.0°C ( 48°F) [RH = 87%]
Pressure (altimeter):29.80 inches Hg (1009.2 mb)
Winds:from the WSW (250 degrees) at 14 MPH (12 knots; 6.2 m/s) gusting to 22 MPH (19 knots; 9.8 m/s)
Visibility: 4 sm ( 6 km)
Ceiling:1400 feet AGL
Clouds: broken clouds at 1400 feet AGL, overcast cloud deck at 2000 feet AGL
Weather:-RA BR (light rain, mist)
QC Flag:automated observation with no human augmentation
Text:PAVC 201156Z AUTO 24009G15KT 4SM -RA BR FEW010 OVC016 10/09 A2980 RMK AO2 SLP098 P0002 60036 70053 T01000089 10106 20089 58003
Temperature: 10.0°C ( 50°F)
Dewpoint: 8.9°C ( 48°F) [RH = 93%]
Pressure (altimeter):29.80 inches Hg (1009.2 mb) [Sea level pressure: 1009.8 mb]
Winds:from the WSW (240 degrees) at 10 MPH (9 knots; 4.6 m/s) gusting to 17 MPH (15 knots; 7.7 m/s)
Visibility: 4 sm ( 6 km)
Ceiling:1600 feet AGL
Clouds: few clouds at 1000 feet AGL, overcast cloud deck at 1600 feet AGL
Weather:-RA BR (light rain, mist)
QC Flag:automated observation with no human augmentation
Text:PAVC 201118Z AUTO 24012G19KT 3SM -RA BR BKN016 OVC022 10/08 A2980 RMK AO2 P0002
Temperature: 10.0°C ( 50°F)
Dewpoint: 8.0°C ( 46°F) [RH = 87%]
Pressure (altimeter):29.80 inches Hg (1009.2 mb)
Winds:from the WSW (240 degrees) at 14 MPH (12 knots; 6.2 m/s) gusting to 22 MPH (19 knots; 9.8 m/s)
Visibility: 3 sm ( 5 km)
Ceiling:1600 feet AGL
Clouds: broken clouds at 1600 feet AGL, overcast cloud deck at 2200 feet AGL
Weather:-RA BR (light rain, mist)
QC Flag:automated observation with no human augmentation
Text:PAVC 201105Z AUTO 22009G17KT 3SM -RA BR BKN014 OVC020 10/09 A2981 RMK AO2 P0001
Temperature: 10.0°C ( 50°F)
Dewpoint: 9.0°C ( 48°F) [RH = 93%]
Pressure (altimeter):29.81 inches Hg (1009.6 mb)
Winds:from the SW (220 degrees) at 10 MPH (9 knots; 4.6 m/s) gusting to 20 MPH (17 knots; 8.7 m/s)
Visibility: 3 sm ( 5 km)
Ceiling:1400 feet AGL
Clouds: broken clouds at 1400 feet AGL, overcast cloud deck at 2000 feet AGL
Weather:-RA BR (light rain, mist)
QC Flag:automated observation with no human augmentation
Text:PAVC 201056Z AUTO 23009G16KT 2 1/2SM RA BR BKN017 OVC023 10/08 A2982 RMK AO2 VIS 2V3 SLP103 P0007 T01000083
Temperature: 10.0°C ( 50°F)
Dewpoint: 8.3°C ( 47°F) [RH = 89%]
Pressure (altimeter):29.82 inches Hg (1009.9 mb) [Sea level pressure: 1010.3 mb]
Winds:from the SW (230 degrees) at 10 MPH (9 knots; 4.6 m/s) gusting to 18 MPH (16 knots; 8.2 m/s)
Visibility: 2.50 sm ( 4.02 km)
Ceiling:1700 feet AGL
Clouds: broken clouds at 1700 feet AGL, overcast cloud deck at 2300 feet AGL
Weather:RA BR (moderate rain, mist)
QC Flag:automated observation with no human augmentation
Text:PAVC 201000Z AUTO 27014KT 2 1/2SM RA BR SCT008 BKN015 OVC025 09/08 A2982 RMK AO2 VIS 2V3 P0001
Temperature: 9.0°C ( 48°F)
Dewpoint: 8.0°C ( 46°F) [RH = 93%]
Pressure (altimeter):29.82 inches Hg (1009.9 mb)
Winds:from the W (270 degrees) at 16 MPH (14 knots; 7.2 m/s)
Visibility: 2.50 sm ( 4.02 km)
Ceiling:1500 feet AGL
Clouds: scattered clouds at 800 feet AGL, broken clouds at 1500 feet AGL, overcast cloud deck at 2500 feet AGL
Weather:RA BR (moderate rain, mist)
QC Flag:automated observation with no human augmentation
Text:PAVC 200956Z AUTO 25013G17KT 3SM RA BR SCT008 BKN015 OVC028 09/08 A2982 RMK AO2 SLP103 P0015 T00940083
Temperature: 9.4°C ( 49°F)
Dewpoint: 8.3°C ( 47°F) [RH = 93%]
Pressure (altimeter):29.82 inches Hg (1009.9 mb) [Sea level pressure: 1010.3 mb]
Winds:from the WSW (250 degrees) at 15 MPH (13 knots; 6.7 m/s) gusting to 20 MPH (17 knots; 8.7 m/s)
Visibility: 3 sm ( 5 km)
Ceiling:1500 feet AGL
Clouds: scattered clouds at 800 feet AGL, broken clouds at 1500 feet AGL, overcast cloud deck at 2800 feet AGL
Weather:RA BR (moderate rain, mist)
QC Flag:automated observation with no human augmentation
Text:PAVC 200941Z AUTO 26012G20KT 3SM RA BR FEW008 SCT015 OVC022 09/08 A2982 RMK AO2 P0012
Temperature: 9.0°C ( 48°F)
Dewpoint: 8.0°C ( 46°F) [RH = 93%]
Pressure (altimeter):29.82 inches Hg (1009.9 mb)
Winds:from the W (260 degrees) at 14 MPH (12 knots; 6.2 m/s) gusting to 23 MPH (20 knots; 10.3 m/s)
Visibility: 3 sm ( 5 km)
Ceiling:2200 feet AGL
Clouds: few clouds at 800 feet AGL, scattered clouds at 1500 feet AGL, overcast cloud deck at 2200 feet AGL
Weather:RA BR (moderate rain, mist)
QC Flag:automated observation with no human augmentation
Text:PAVC 200921Z AUTO 25016G21KT 3SM RA BR SCT008 BKN013 OVC024 09/08 A2982 RMK AO2 P0007
Temperature: 9.0°C ( 48°F)
Dewpoint: 8.0°C ( 46°F) [RH = 93%]
Pressure (altimeter):29.82 inches Hg (1009.9 mb)
Winds:from the WSW (250 degrees) at 18 MPH (16 knots; 8.2 m/s) gusting to 24 MPH (21 knots; 10.8 m/s)
Visibility: 3 sm ( 5 km)
Ceiling:1300 feet AGL
Clouds: scattered clouds at 800 feet AGL, broken clouds at 1300 feet AGL, overcast cloud deck at 2400 feet AGL
Weather:RA BR (moderate rain, mist)
QC Flag:automated observation with no human augmentation
Text:PAVC 200902Z AUTO 24017G24KT 2 1/2SM RA BR SCT008 BKN015 OVC023 09/08 A2982 RMK AO2 P0002
Temperature: 9.0°C ( 48°F)
Dewpoint: 8.0°C ( 46°F) [RH = 93%]
Pressure (altimeter):29.82 inches Hg (1009.9 mb)
Winds:from the WSW (240 degrees) at 20 MPH (17 knots; 8.7 m/s) gusting to 28 MPH (24 knots; 12.3 m/s)
Visibility: 2.50 sm ( 4.02 km)
Ceiling:1500 feet AGL
Clouds: scattered clouds at 800 feet AGL, broken clouds at 1500 feet AGL, overcast cloud deck at 2300 feet AGL
Weather:RA BR (moderate rain, mist)
QC Flag:automated observation with no human augmentation
Text:PAVC 200856Z AUTO 24020G24KT 2 1/2SM RA BR BKN011 BKN016 OVC023 09/08 A2981 RMK AO2 SLP102 P0006 60012 T00940083 401390083 55002
Temperature: 9.4°C ( 49°F)
Dewpoint: 8.3°C ( 47°F) [RH = 93%]
Pressure (altimeter):29.81 inches Hg (1009.6 mb) [Sea level pressure: 1010.2 mb]
Winds:from the WSW (240 degrees) at 23 MPH (20 knots; 10.3 m/s) gusting to 28 MPH (24 knots; 12.3 m/s)
Visibility: 2.50 sm ( 4.02 km)
Ceiling:1100 feet AGL
Clouds: broken clouds at 1100 feet AGL, broken clouds at 1600 feet AGL, overcast cloud deck at 2300 feet AGL
Weather:RA BR (moderate rain, mist)
QC Flag:automated observation with no human augmentation
Text:PAVC 200839Z AUTO 23018G23KT 2 1/2SM -RA BR FEW008 BKN014 OVC023 09/08 A2981 RMK AO2 P0003
Temperature: 9.0°C ( 48°F)
Dewpoint: 8.0°C ( 46°F) [RH = 93%]
Pressure (altimeter):29.81 inches Hg (1009.6 mb)
Winds:from the SW (230 degrees) at 21 MPH (18 knots; 9.3 m/s) gusting to 26 MPH (23 knots; 11.8 m/s)
Visibility: 2.50 sm ( 4.02 km)
Ceiling:1400 feet AGL
Clouds: few clouds at 800 feet AGL, broken clouds at 1400 feet AGL, overcast cloud deck at 2300 feet AGL
Weather:-RA BR (light rain, mist)
QC Flag:automated observation with no human augmentation
Text:PAVC 200824Z AUTO 25017G22KT 2 1/2SM RA BR SCT010 OVC014 09/08 A2981 RMK AO2 P0001
Temperature: 9.0°C ( 48°F)
Dewpoint: 8.0°C ( 46°F) [RH = 93%]
Pressure (altimeter):29.81 inches Hg (1009.6 mb)
Winds:from the WSW (250 degrees) at 20 MPH (17 knots; 8.7 m/s) gusting to 25 MPH (22 knots; 11.3 m/s)
Visibility: 2.50 sm ( 4.02 km)
Ceiling:1400 feet AGL
Clouds: scattered clouds at 1000 feet AGL, overcast cloud deck at 1400 feet AGL
Weather:RA BR (moderate rain, mist)
QC Flag:automated observation with no human augmentation
Text:PAVC 200804Z AUTO 25016G22KT 6SM -RA BR FEW009 OVC014 09/08 A2981 RMK AO2 P0000
Temperature: 9.0°C ( 48°F)
Dewpoint: 8.0°C ( 46°F) [RH = 93%]
Pressure (altimeter):29.81 inches Hg (1009.6 mb)
Winds:from the WSW (250 degrees) at 18 MPH (16 knots; 8.2 m/s) gusting to 25 MPH (22 knots; 11.3 m/s)
Visibility: 6 sm ( 10 km)
Ceiling:1400 feet AGL
Clouds: few clouds at 900 feet AGL, overcast cloud deck at 1400 feet AGL
Weather:-RA BR (light rain, mist)
QC Flag:automated observation with no human augmentation
Text:PAVC 200756Z AUTO 26015G25KT 7SM -RA BKN012 OVC016 09/08 A2980 RMK AO2 SLP099 P0004 T00890078
Temperature: 8.9°C ( 48°F)
Dewpoint: 7.8°C ( 46°F) [RH = 93%]
Pressure (altimeter):29.80 inches Hg (1009.2 mb) [Sea level pressure: 1009.9 mb]
Winds:from the W (260 degrees) at 17 MPH (15 knots; 7.7 m/s) gusting to 29 MPH (25 knots; 12.9 m/s)
Visibility: 7 sm ( 11 km)
Ceiling:1200 feet AGL
Clouds: broken clouds at 1200 feet AGL, overcast cloud deck at 1600 feet AGL
Weather:-RA (light rain)
QC Flag:automated observation with no human augmentation
Text:PAVC 200743Z AUTO 24016G25KT 5SM -RA BR BKN013 OVC018 09/08 A2980 RMK AO2 P0003
Temperature: 9.0°C ( 48°F)
Dewpoint: 8.0°C ( 46°F) [RH = 93%]
Pressure (altimeter):29.80 inches Hg (1009.2 mb)
Winds:from the WSW (240 degrees) at 18 MPH (16 knots; 8.2 m/s) gusting to 29 MPH (25 knots; 12.9 m/s)
Visibility: 5 sm ( 8 km)
Ceiling:1300 feet AGL
Clouds: broken clouds at 1300 feet AGL, overcast cloud deck at 1800 feet AGL
Weather:-RA BR (light rain, mist)
QC Flag:automated observation with no human augmentation
Text:PAVC 200656Z AUTO 27013G21KT 10SM -RA OVC020 09/08 A2982 RMK AO2 SLP104 P0002 T00940078
Temperature: 9.4°C ( 49°F)
Dewpoint: 7.8°C ( 46°F) [RH = 90%]
Pressure (altimeter):29.82 inches Hg (1009.9 mb) [Sea level pressure: 1010.4 mb]
Winds:from the W (270 degrees) at 15 MPH (13 knots; 6.7 m/s) gusting to 24 MPH (21 knots; 10.8 m/s)
Visibility:10 or more sm (16+ km)
Ceiling:2000 feet AGL
Clouds: overcast cloud deck at 2000 feet AGL
Weather:-RA (light rain)
QC Flag:automated observation with no human augmentation

TAF for:PAVC (King Cove Arpt, AK, US)
Text:No data found